createdAt,value
2022-08-30T00:01:55.198Z,1.02
2022-08-30T00:06:57.130Z,0.88
2022-08-30T00:11:58.878Z,0.93
2022-08-30T00:17:00.553Z,0.90
2022-08-30T00:22:02.211Z,0.82
2022-08-30T00:27:04.337Z,0.90
2022-08-30T00:32:06.326Z,1.00
2022-08-30T00:37:08.246Z,1.00
2022-08-30T00:42:10.019Z,1.00
2022-08-30T00:47:11.821Z,0.90
2022-08-30T00:52:14.354Z,1.10
2022-08-30T00:57:16.270Z,1.20
2022-08-30T01:02:21.845Z,1.30
2022-08-30T01:07:24.311Z,1.35
2022-08-30T01:12:26.364Z,1.40
2022-08-30T01:17:29.285Z,1.73
2022-08-30T01:22:49.122Z,1.30
2022-08-30T01:27:55.952Z,1.42
2022-08-30T01:33:00.735Z,1.45
2022-08-30T01:38:02.434Z,1.20
2022-08-30T01:43:05.690Z,1.23
2022-08-30T01:48:08.128Z,1.33
2022-08-30T01:53:13.337Z,1.30
2022-08-30T01:58:15.141Z,1.08
2022-08-30T02:03:16.921Z,1.30
2022-08-30T02:08:18.778Z,1.30
2022-08-30T02:13:20.399Z,1.25
2022-08-30T02:18:24.043Z,1.38
2022-08-30T02:23:25.661Z,1.17
2022-08-30T02:28:27.518Z,1.25
2022-08-30T02:33:29.284Z,1.10
2022-08-30T02:38:31.134Z,1.13
2022-08-30T02:43:32.810Z,1.15
2022-08-30T02:48:34.471Z,1.20
2022-08-30T02:53:37.222Z,1.30
2022-08-30T02:58:39.958Z,1.35
2022-08-30T03:03:43.406Z,1.27
2022-08-30T03:08:45.319Z,1.08
2022-08-30T03:13:46.996Z,1.40
2022-08-30T03:18:48.916Z,1.20
2022-08-30T03:23:50.568Z,1.60
2022-08-30T03:28:52.195Z,1.60
2022-08-30T03:33:53.833Z,1.30
2022-08-30T03:38:55.557Z,1.20
2022-08-30T03:44:00.092Z,1.48
2022-08-30T03:49:02.811Z,2.08
2022-08-30T03:54:04.668Z,2.33
2022-08-30T03:59:06.938Z,1.90
2022-08-30T04:04:08.909Z,2.13
2022-08-30T04:09:10.625Z,2.75
2022-08-30T04:14:12.256Z,3.38
2022-08-30T04:19:13.955Z,5.38
2022-08-30T04:24:17.114Z,5.97
2022-08-30T04:29:18.886Z,6.05
2022-08-30T04:34:20.557Z,5.57
2022-08-30T04:39:22.578Z,5.30
2022-08-30T04:44:27.270Z,4.75
2022-08-30T04:49:28.969Z,3.65
2022-08-30T04:54:30.663Z,3.80
2022-08-30T04:59:33.322Z,3.00
2022-08-30T05:04:36.064Z,3.22
2022-08-30T05:09:37.680Z,3.97
2022-08-30T05:14:39.316Z,5.15
2022-08-30T05:19:41.237Z,5.10
2022-08-30T05:24:42.883Z,5.70
2022-08-30T05:29:44.614Z,6.63
2022-08-30T05:34:46.255Z,6.38
2022-08-30T05:39:51.608Z,7.10
2022-08-30T05:44:54.694Z,6.50
2022-08-30T05:49:56.322Z,6.57
2022-08-30T05:55:03.970Z,6.72
2022-08-30T06:00:20.467Z,6.65
2022-08-30T06:05:22.237Z,7.60
2022-08-30T06:10:24.458Z,6.75
2022-08-30T06:15:26.128Z,6.90
2022-08-30T06:20:27.895Z,5.80
2022-08-30T06:25:41.253Z,4.63
2022-08-30T06:30:43.782Z,4.10
2022-08-30T06:35:58.303Z,3.85
2022-08-30T06:41:00.479Z,3.40
2022-08-30T06:46:04.348Z,2.60
2022-08-30T06:51:07.395Z,2.83
2022-08-30T06:56:11.341Z,2.33
2022-08-30T07:01:21.594Z,1.60
2022-08-30T07:06:24.317Z,1.65
2022-08-30T07:11:37.657Z,1.58
2022-08-30T07:16:39.330Z,1.30
2022-08-30T07:21:43.762Z,3.28
2022-08-30T07:26:49.935Z,2.78
2022-08-30T07:31:51.822Z,3.30
2022-08-30T07:36:53.756Z,3.35
2022-08-30T07:41:55.477Z,2.80
2022-08-30T07:46:57.814Z,2.38
2022-08-30T09:08:57.527Z,5.47
2022-08-30T09:13:59.846Z,3.97
2022-08-30T09:19:02.210Z,5.40
2022-08-30T09:24:05.382Z,4.40
2022-08-30T09:29:17.464Z,4.88
2022-08-30T09:34:22.126Z,5.68
2022-08-30T09:39:34.460Z,5.25
2022-08-30T09:44:38.528Z,4.80
2022-08-30T09:49:43.487Z,4.90
2022-08-30T09:55:01.402Z,5.20
2022-08-30T10:00:21.438Z,6.40
2022-08-30T10:05:31.176Z,5.97
2022-08-30T10:10:35.969Z,6.15
2022-08-30T10:15:57.138Z,5.93
2022-08-30T10:21:19.225Z,5.70
2022-08-30T10:31:56.081Z,5.93
2022-08-30T10:37:25.652Z,5.75
2022-08-30T10:42:33.144Z,5.40
2022-08-30T10:47:41.296Z,4.85
2022-08-30T10:52:58.870Z,4.20
2022-08-30T10:58:05.827Z,3.30
2022-08-30T11:03:49.633Z,3.28
2022-08-30T11:09:16.558Z,2.80
2022-08-30T11:19:35.008Z,2.35
2022-08-30T11:25:01.939Z,2.80
2022-08-30T11:30:27.399Z,2.80
2022-08-30T11:35:50.592Z,2.90
2022-08-30T11:41:28.877Z,2.28
2022-08-30T11:46:41.679Z,3.08
2022-08-30T11:52:26.731Z,3.85
2022-08-30T11:57:45.338Z,4.00
2022-08-30T12:03:05.626Z,3.03
2022-08-30T12:08:08.433Z,2.90
2022-08-30T12:13:31.083Z,3.67
2022-08-30T12:18:51.274Z,3.20
2022-08-30T12:24:07.702Z,2.97
2022-08-30T12:34:27.633Z,3.42
2022-08-30T12:39:36.874Z,3.22
2022-08-30T12:44:39.603Z,4.40
2022-08-30T12:49:41.780Z,3.75
2022-08-30T12:54:45.212Z,4.30
2022-08-30T12:59:57.937Z,3.58
2022-08-30T13:05:32.539Z,3.92
2022-08-30T13:10:34.745Z,3.88
2022-08-30T13:15:42.544Z,3.60
2022-08-30T13:20:46.503Z,3.25
2022-08-30T13:25:50.227Z,3.27
2022-08-30T13:30:52.631Z,3.25
2022-08-30T13:35:54.271Z,3.10
2022-08-30T13:40:56.479Z,2.95
2022-08-30T13:45:58.435Z,2.63
2022-08-30T13:51:00.347Z,3.00
2022-08-30T13:56:03.664Z,2.60
2022-08-30T14:01:06.157Z,2.22
2022-08-30T14:06:31.508Z,2.60
2022-08-30T14:11:30.364Z,2.42
2022-08-30T14:16:33.514Z,2.80
2022-08-30T14:21:37.069Z,2.85
2022-08-30T14:26:47.384Z,2.55
2022-08-30T14:31:49.310Z,2.90
2022-08-30T14:36:51.225Z,2.60
2022-08-30T14:41:55.493Z,2.55
2022-08-30T14:46:57.356Z,2.42
2022-08-30T14:51:59.454Z,2.78
2022-08-30T14:57:01.174Z,3.03
2022-08-30T15:02:03.044Z,2.92
2022-08-30T15:07:04.989Z,2.38
2022-08-30T15:12:07.282Z,2.10
2022-08-30T15:17:09.574Z,2.53
2022-08-30T15:22:11.313Z,2.65
2022-08-30T15:27:13.052Z,3.38
2022-08-30T15:32:14.851Z,2.20
2022-08-30T15:37:22.327Z,2.45
2022-08-30T15:42:24.310Z,2.28
2022-08-30T15:47:26.719Z,2.30
2022-08-30T15:52:29.610Z,1.85
2022-08-30T15:57:32.239Z,2.05
2022-08-30T16:02:34.196Z,2.30
2022-08-30T16:07:40.590Z,1.50
2022-08-30T16:12:42.623Z,1.48
2022-08-30T16:17:44.593Z,1.48
2022-08-30T16:22:47.092Z,1.55
2022-08-30T16:27:49.074Z,1.48
2022-08-30T16:32:52.119Z,1.25
2022-08-30T16:37:54.107Z,1.20
2022-08-30T16:42:55.748Z,1.05
2022-08-30T16:47:57.643Z,1.10
2022-08-30T16:52:59.375Z,1.08
2022-08-30T16:58:01.181Z,1.08
2022-08-30T17:03:03.217Z,1.10
2022-08-30T17:08:05.452Z,1.10
2022-08-30T17:13:07.896Z,1.02
2022-08-30T17:18:09.696Z,1.10
2022-08-30T17:23:11.899Z,1.10
2022-08-30T17:28:13.808Z,0.80
2022-08-30T17:33:15.626Z,1.20
2022-08-30T17:38:19.793Z,1.33
2022-08-30T17:43:21.809Z,1.25
2022-08-30T17:48:23.554Z,1.20
2022-08-30T17:53:27.758Z,0.70
2022-08-30T17:58:29.467Z,0.65
2022-08-30T18:03:31.132Z,0.50
2022-08-30T18:08:35.113Z,0.60
2022-08-30T18:13:37.624Z,0.60
2022-08-30T18:18:39.399Z,0.70
2022-08-30T18:23:41.788Z,0.60
2022-08-30T18:28:44.518Z,0.70
2022-08-30T18:33:46.719Z,0.45
2022-08-30T18:38:48.503Z,0.55
2022-08-30T18:44:01.833Z,0.60
2022-08-30T18:49:16.815Z,0.82
2022-08-30T18:54:19.514Z,0.70
2022-08-30T18:59:21.264Z,0.60
2022-08-30T19:04:35.917Z,0.50
2022-08-30T19:09:38.273Z,0.80
2022-08-30T19:14:40.266Z,0.70
2022-08-30T19:19:47.426Z,0.90
2022-08-30T19:24:51.237Z,0.60
2022-08-30T19:29:53.761Z,0.60
2022-08-30T19:34:55.632Z,0.60
2022-08-30T19:39:57.243Z,0.70
2022-08-30T19:45:03.035Z,0.60
2022-08-30T19:50:07.139Z,0.68
2022-08-30T19:55:12.350Z,0.80
2022-08-30T20:00:16.615Z,0.80
2022-08-30T20:05:18.790Z,0.70
2022-08-30T20:10:20.896Z,0.80
2022-08-30T20:15:27.965Z,0.50
2022-08-30T20:20:29.794Z,0.80
2022-08-30T20:25:31.513Z,0.70
2022-08-30T20:30:33.389Z,0.80
2022-08-30T20:35:36.472Z,0.80
2022-08-30T20:40:39.698Z,0.77
2022-08-30T20:45:41.539Z,0.85
2022-08-30T20:50:43.434Z,0.80
2022-08-30T20:55:47.316Z,0.70
2022-08-30T21:00:54.110Z,0.93
2022-08-30T21:05:56.735Z,0.85
2022-08-30T21:10:58.626Z,0.77
2022-08-30T21:16:03.701Z,0.90
2022-08-30T21:21:14.563Z,0.80
2022-08-30T21:26:17.598Z,0.80
2022-08-30T21:31:23.917Z,1.10
2022-08-30T21:36:45.495Z,0.90
2022-08-30T21:41:49.243Z,0.82
2022-08-30T21:46:53.103Z,1.00
2022-08-30T21:51:55.385Z,0.90
2022-08-30T21:57:02.138Z,1.08
2022-08-30T22:02:03.838Z,0.93
2022-08-30T22:07:07.364Z,0.65
2022-08-30T22:12:09.583Z,0.80
2022-08-30T22:17:12.748Z,0.80
2022-08-30T22:22:14.622Z,0.95
2022-08-30T22:27:16.328Z,0.95
2022-08-30T22:32:17.990Z,0.90
2022-08-30T22:37:19.661Z,0.70
2022-08-30T22:42:21.344Z,0.70
2022-08-30T22:47:22.989Z,0.77
2022-08-30T22:52:25.658Z,0.90
2022-08-30T22:57:27.365Z,0.82
2022-08-30T23:02:29.062Z,0.82
2022-08-30T23:07:30.788Z,0.80
2022-08-30T23:12:32.879Z,1.00
2022-08-30T23:17:39.686Z,1.00
2022-08-30T23:22:41.594Z,1.05
2022-08-30T23:28:03.715Z,0.93
2022-08-30T23:33:24.263Z,0.80
2022-08-30T23:38:44.755Z,0.70
2022-08-30T23:44:05.124Z,0.88
2022-08-30T23:49:25.658Z,1.00
2022-08-30T23:54:46.110Z,0.80
